Time;durP1;ratioP1;P1;durP2;ratioP2;P2;SDS_P1;SDS_P2;PMS_P1;PMS_P2;Temp;Humidity;BMP_temperature;BMP_pressure;BME280_temperature;BME280_humidity;BME280_pressure;Samples;Min_cycle;Max_cycle;Signal;HPM_P1;HPM_P2
2021/09/28 00:00:32;;;;;;;18.08;1.90;;;;;;;19.19;67.25;101400.25;4834019;28;123252;-76
2021/09/28 00:02:57;;;;;;;17.85;1.75;;;;;;;19.18;66.89;101409.84;4845281;28;121732;-76
2021/09/28 00:05:23;;;;;;;9.73;1.67;;;;;;;19.17;67.30;101411.13;4844250;28;122036;-75
2021/09/28 00:07:50;;;;;;;15.23;1.92;;;;;;;19.19;67.47;101416.19;4822464;28;122292;-76
2021/09/28 00:10:15;;;;;;;14.88;2.00;;;;;;;19.19;67.46;101427.31;4852416;28;121691;-76
2021/09/28 00:12:41;;;;;;;14.23;2.08;;;;;;;19.19;67.32;101432.88;4865857;28;121973;-75
2021/09/28 00:15:10;;;;;;;13.32;2.60;;;;;;;19.18;67.49;101420.22;4832937;28;122522;-76
2021/09/28 00:17:36;;;;;;;21.48;2.38;;;;;;;19.15;66.79;101426.75;4839306;28;122569;-76
2021/09/28 00:20:04;;;;;;;20.83;2.60;;;;;;;19.14;67.42;101425.97;4839649;28;125366;-76
2021/09/28 00:22:29;;;;;;;20.35;1.98;;;;;;;19.11;66.97;101423.44;4846775;28;121838;-76
2021/09/28 00:24:55;;;;;;;14.27;1.85;;;;;;;19.09;66.93;101435.03;4849325;28;121969;-76
2021/09/28 00:27:21;;;;;;;11.27;2.00;;;;;;;19.09;67.09;101442.63;4834058;28;122021;-76
2021/09/28 00:29:46;;;;;;;19.35;2.40;;;;;;;19.05;66.72;101444.88;4836051;28;121617;-76
2021/09/28 00:32:12;;;;;;;12.68;2.33;;;;;;;19.02;66.63;101446.59;4839174;28;122872;-76
2021/09/28 00:34:40;;;;;;;16.02;1.70;;;;;;;18.97;66.88;101445.31;4854865;28;121961;-76
2021/09/28 00:37:06;;;;;;;14.93;2.05;;;;;;;19.01;66.54;101462.53;4846007;28;121548;-76
2021/09/28 00:39:32;;;;;;;14.10;1.85;;;;;;;19.00;67.22;101468.59;4835634;28;121732;-76
2021/09/28 00:41:58;;;;;;;17.70;2.45;;;;;;;18.98;67.16;101469.06;4848738;28;121632;-76
2021/09/28 00:44:31;;;;;;;15.10;2.10;;;;;;;18.96;66.66;101476.38;4849824;28;121599;-76
2021/09/28 00:46:57;;;;;;;11.52;1.83;;;;;;;18.92;67.00;101473.03;4835491;28;121632;-76
2021/09/28 00:49:23;;;;;;;13.00;2.05;;;;;;;18.89;66.49;101476.78;4836396;28;121744;-76
2021/09/28 00:51:48;;;;;;;14.15;2.20;;;;;;;18.86;66.43;101475.75;4842027;28;122408;-76
2021/09/28 00:54:14;;;;;;;15.13;2.20;;;;;;;18.82;66.75;101485.56;4851376;28;121322;-76
2021/09/28 00:56:43;;;;;;;15.95;2.33;;;;;;;18.83;66.62;101485.06;4840898;28;121731;-76
2021/09/28 00:59:08;;;;;;;16.58;1.98;;;;;;;18.77;66.66;101487.03;4846143;28;121502;-76
2021/09/28 01:01:35;;;;;;;11.65;1.85;;;;;;;18.74;67.12;101487.25;4828636;28;121766;-76
2021/09/28 01:04:01;;;;;;;16.20;2.25;;;;;;;18.72;67.10;101498.09;4839965;28;121681;-76
2021/09/28 01:06:27;;;;;;;13.27;1.80;;;;;;;18.66;66.46;101495.22;4864420;28;122119;-76
2021/09/28 01:08:56;;;;;;;12.35;2.03;;;;;;;18.65;67.10;101513.16;4819321;28;121486;-76
2021/09/28 01:11:22;;;;;;;12.05;2.20;;;;;;;18.58;67.20;101505.97;4848950;28;121671;-76
2021/09/28 01:13:47;;;;;;;15.38;2.42;;;;;;;18.55;67.18;101515.28;4845094;28;121240;-76
2021/09/28 01:16:13;;;;;;;19.65;2.58;;;;;;;18.43;66.84;101505.25;4834283;28;121881;-76
2021/09/28 01:18:41;;;;;;;15.85;2.05;;;;;;;18.50;66.63;101523.56;4846991;28;121318;-76
2021/09/28 01:21:11;;;;;;;14.50;2.25;;;;;;;18.42;67.03;101521.16;4818719;28;121164;-76
2021/09/28 01:23:44;;;;;;;17.63;2.58;;;;;;;18.38;66.52;101528.94;4833158;28;123342;-76
2021/09/28 01:26:24;;;;;;;12.45;1.85;;;;;;;18.29;67.28;101520.75;4835997;28;120588;-76
2021/09/28 01:28:51;;;;;;;12.48;2.20;;;;;;;18.29;66.74;101531.84;4844160;28;122330;-76
2021/09/28 01:31:18;;;;;;;11.98;2.40;;;;;;;18.25;66.80;101533.31;4841729;28;120585;-76
2021/09/28 01:33:44;;;;;;;12.32;2.15;;;;;;;18.20;66.89;101528.41;4835795;28;120537;-76
2021/09/28 01:36:10;;;;;;;11.77;2.10;;;;;;;18.16;66.97;101528.63;4853323;28;120518;-76
2021/09/28 01:38:36;;;;;;;12.73;2.20;;;;;;;18.10;66.65;101534.09;4835532;28;120592;-76
2021/09/28 01:41:03;;;;;;;11.85;1.60;;;;;;;18.02;67.55;101532.97;4835035;28;120569;-76
2021/09/28 01:43:28;;;;;;;11.68;1.58;;;;;;;17.91;66.38;101515.38;4850639;28;121306;-76
2021/09/28 01:45:56;;;;;;;10.50;1.80;;;;;;;17.98;66.53;101534.41;4847300;28;120279;-76
2021/09/28 01:48:25;;;;;;;10.63;1.95;;;;;;;17.93;66.19;101533.06;4849963;28;120684;-76
2021/09/28 01:50:51;;;;;;;7.53;1.50;;;;;;;17.92;66.45;101550.22;4828934;28;122620;-76
2021/09/28 01:53:19;;;;;;;9.13;2.08;;;;;;;17.88;66.25;101553.19;4855577;28;123933;-76
2021/09/28 01:55:45;;;;;;;9.70;1.80;;;;;;;17.84;65.96;101551.84;4846012;28;121387;-76
2021/09/28 01:58:11;;;;;;;13.60;1.77;;;;;;;17.78;66.30;101549.00;4851824;28;120969;-76
2021/09/28 02:00:36;;;;;;;9.52;1.88;;;;;;;17.74;66.45;101553.94;4839409;28;120291;-76
2021/09/28 02:03:02;;;;;;;9.27;1.70;;;;;;;17.68;66.55;101553.84;4837224;28;120490;-76
2021/09/28 02:05:27;;;;;;;10.32;1.73;;;;;;;17.66;66.80;101569.44;4828911;28;120341;-76
2021/09/28 02:07:53;;;;;;;10.40;2.03;;;;;;;17.62;66.78;101569.63;4850756;28;121443;-76
2021/09/28 02:10:21;;;;;;;11.88;1.80;;;;;;;17.58;66.78;101566.28;4844660;28;123652;-76
2021/09/28 02:12:47;;;;;;;8.88;2.08;;;;;;;17.53;66.38;101566.94;4840381;28;119865;-76
2021/09/28 02:15:12;;;;;;;7.43;1.40;;;;;;;17.49;66.66;101564.34;4834412;28;119788;-76
2021/09/28 02:17:40;;;;;;;11.25;1.70;;;;;;;17.47;67.01;101568.84;4835751;28;120719;-76
2021/09/28 02:20:06;;;;;;;10.98;1.80;;;;;;;17.45;67.13;101565.78;4843908;28;120024;-76
2021/09/28 02:22:32;;;;;;;9.25;1.75;;;;;;;17.40;67.27;101563.66;4855947;28;120755;-76
2021/09/28 02:24:58;;;;;;;9.40;1.70;;;;;;;17.38;66.53;101572.47;4851295;28;119823;-76
2021/09/28 02:27:23;;;;;;;12.30;2.13;;;;;;;17.33;65.61;101564.81;4848447;28;119998;-76
2021/09/28 02:29:49;;;;;;;11.30;2.10;;;;;;;17.29;65.77;101574.56;4847794;28;120302;-76
2021/09/28 02:32:15;;;;;;;10.57;2.10;;;;;;;17.22;66.20;101567.38;4840869;28;119788;-76
2021/09/28 02:34:40;;;;;;;9.52;2.05;;;;;;;17.19;66.46;101573.84;4850007;28;120776;-76
2021/09/28 02:37:08;;;;;;;9.02;2.00;;;;;;;17.16;66.13;101575.56;4837206;28;120234;-76
2021/09/28 02:39:39;;;;;;;6.88;1.65;;;;;;;17.13;66.26;101579.31;4840831;28;120322;-76
2021/09/28 02:42:07;;;;;;;9.95;1.90;;;;;;;17.09;66.47;101583.50;4849093;28;120335;-76
2021/09/28 02:44:32;;;;;;;10.13;1.80;;;;;;;17.02;66.49;101575.53;4835840;28;119797;-76
2021/09/28 02:46:58;;;;;;;6.53;1.70;;;;;;;16.93;66.43;101572.84;4848995;28;121083;-76
2021/09/28 02:49:27;;;;;;;9.30;1.80;;;;;;;16.98;66.52;101594.34;4835380;28;119730;-75
2021/09/28 02:51:52;;;;;;;9.57;1.80;;;;;;;16.88;66.51;101580.56;4840799;28;119933;-76
2021/09/28 02:54:18;;;;;;;8.50;1.63;;;;;;;16.90;66.14;101599.50;4848977;28;120165;-76
2021/09/28 02:56:43;;;;;;;7.78;1.50;;;;;;;16.90;66.47;101593.94;4836637;28;121190;-76
2021/09/28 02:59:09;;;;;;;7.38;1.67;;;;;;;16.87;66.71;101609.53;4834242;28;120088;-76
2021/09/28 03:01:35;;;;;;;9.43;1.52;;;;;;;16.83;65.98;101603.38;4851134;28;119650;-76
2021/09/28 03:04:01;;;;;;;5.55;1.40;;;;;;;16.79;65.72;101600.00;4838998;28;120252;-76
2021/09/28 03:06:26;;;;;;;7.68;1.45;;;;;;;16.75;65.95;101595.88;4852396;28;119972;-76
2021/09/28 03:08:52;;;;;;;12.60;2.40;;;;;;;16.74;65.99;101602.66;4831312;28;122051;-76
2021/09/28 03:11:18;;;;;;;10.57;2.30;;;;;;;16.70;66.60;101599.31;4849439;28;119568;-76
2021/09/28 03:13:43;;;;;;;6.60;1.80;;;;;;;16.69;66.49;101609.63;4850116;28;119478;-76
2021/09/28 03:16:09;;;;;;;8.15;1.70;;;;;;;16.64;66.17;101609.47;4848185;28;120165;-76
2021/09/28 03:18:35;;;;;;;7.25;1.58;;;;;;;16.65;66.44;101616.53;4845994;28;120425;-76
2021/09/28 03:21:00;;;;;;;10.73;1.75;;;;;;;16.61;66.20;101610.41;4824339;28;121621;-76
2021/09/28 03:23:26;;;;;;;7.50;1.65;;;;;;;16.58;66.16;101612.91;4845525;28;120134;-76
2021/09/28 03:25:51;;;;;;;6.10;1.55;;;;;;;16.58;66.23;101615.66;4851030;28;120040;-76
2021/09/28 03:28:17;;;;;;;9.73;1.65;;;;;;;16.55;66.06;101613.81;4841450;28;121164;-76
2021/09/28 03:30:43;;;;;;;9.50;2.15;;;;;;;16.53;65.99;101609.97;4846511;28;119762;-76
2021/09/28 03:33:12;;;;;;;7.80;2.00;;;;;;;16.51;66.73;101606.91;4843798;28;120905;-76
2021/09/28 03:35:37;;;;;;;9.80;2.70;;;;;;;16.46;66.30;101608.31;4838313;28;119586;-76
2021/09/28 03:38:03;;;;;;;7.43;1.70;;;;;;;16.44;66.27;101616.34;4834792;28;119763;-76
2021/09/28 03:40:30;;;;;;;8.02;2.15;;;;;;;16.42;66.34;101618.81;4834945;28;119925;-76
2021/09/28 03:42:57;;;;;;;7.60;1.98;;;;;;;16.38;66.13;101618.22;4830745;28;119672;-75
2021/09/28 03:45:22;;;;;;;7.63;1.73;;;;;;;16.36;66.08;101617.91;4852379;28;119941;-76
2021/09/28 03:47:48;;;;;;;5.93;1.90;;;;;;;16.34;66.03;101627.94;4854999;28;121154;-76
2021/09/28 03:50:14;;;;;;;4.47;1.95;;;;;;;16.32;66.58;101635.91;4834796;28;120136;-76
2021/09/28 03:52:42;;;;;;;4.68;1.92;;;;;;;16.28;66.44;101633.31;4842229;28;119844;-77
2021/09/28 03:55:13;;;;;;;5.95;1.58;;;;;;;16.26;66.42;101635.78;4849117;28;120649;-75
2021/09/28 03:57:39;;;;;;;8.80;2.03;;;;;;;16.19;66.19;101628.56;4845928;28;119789;-76
2021/09/28 04:00:05;;;;;;;5.05;1.98;;;;;;;16.24;65.91;101643.78;4848856;28;119922;-76
2021/09/28 04:02:34;;;;;;;7.47;2.00;;;;;;;16.23;66.18;101647.78;4849187;28;123563;-77
2021/09/28 04:04:59;;;;;;;7.78;1.95;;;;;;;16.19;65.56;101647.19;4816870;28;119768;-76
2021/09/28 04:07:27;;;;;;;4.25;1.70;;;;;;;16.20;66.27;101648.72;4835173;28;120282;-76
2021/09/28 04:09:53;;;;;;;6.50;2.50;;;;;;;16.14;66.42;101645.06;4850712;28;120921;-76
2021/09/28 04:12:19;;;;;;;5.60;2.20;;;;;;;16.14;65.95;101645.06;4850440;28;119713;-76
2021/09/28 04:14:46;;;;;;;7.68;2.47;;;;;;;16.14;66.46;101656.13;4843806;28;120593;-76
2021/09/28 04:17:15;;;;;;;9.20;2.22;;;;;;;16.11;66.32;101652.28;4841134;28;119669;-76
2021/09/28 04:19:40;;;;;;;7.20;2.03;;;;;;;16.09;65.77;101652.00;4849992;28;119803;-76
2021/09/28 04:22:06;;;;;;;7.60;1.88;;;;;;;16.10;66.12;101656.28;4852753;28;119570;-76
2021/09/28 04:24:35;;;;;;;4.78;2.08;;;;;;;16.08;66.27;101657.97;4843079;28;119856;-76
2021/09/28 04:27:02;;;;;;;10.68;2.65;;;;;;;16.05;66.64;101667.19;4840793;28;119690;-76
2021/09/28 04:29:28;;;;;;;4.80;1.98;;;;;;;16.06;66.63;101671.50;4861867;28;122808;-76
2021/09/28 04:31:53;;;;;;;5.88;1.83;;;;;;;16.04;66.74;101680.28;4834310;28;119965;-76
2021/09/28 04:34:22;;;;;;;5.05;1.58;;;;;;;16.03;66.16;101672.44;4838289;28;120446;-76
2021/09/28 04:36:48;;;;;;;4.70;1.65;;;;;;;16.01;66.45;101689.50;4835820;28;119699;-76
2021/09/28 04:39:13;;;;;;;7.13;2.00;;;;;;;15.98;66.31;101675.84;4834716;28;120273;-76
2021/09/28 04:41:39;;;;;;;8.88;2.75;;;;;;;15.96;66.55;101682.59;4850242;28;120156;-75
2021/09/28 04:44:05;;;;;;;6.40;2.17;;;;;;;15.96;66.46;101693.66;4842277;28;119968;-75
2021/09/28 04:46:31;;;;;;;6.40;1.90;;;;;;;15.91;66.69;101688.00;4837261;28;120017;-75
2021/09/28 04:48:57;;;;;;;6.88;2.33;;;;;;;15.95;66.43;101697.66;4806830;28;122223;-75
2021/09/28 04:51:23;;;;;;;8.27;2.20;;;;;;;15.94;67.08;101698.13;4846419;28;120037;-76
2021/09/28 04:53:48;;;;;;;10.05;2.35;;;;;;;15.96;67.27;101701.97;4838403;28;120217;-76
2021/09/28 04:56:17;;;;;;;9.75;2.17;;;;;;;16.00;67.43;101710.09;4841102;28;119637;-75
2021/09/28 04:58:42;;;;;;;7.93;2.13;;;;;;;16.02;67.13;101709.66;4839544;28;120407;-75
2021/09/28 05:01:08;;;;;;;5.63;2.00;;;;;;;16.03;66.82;101716.72;4850757;28;120556;-76
2021/09/28 05:03:33;;;;;;;7.93;2.05;;;;;;;16.05;67.09;101717.00;4859071;28;119680;-76
2021/09/28 05:05:59;;;;;;;12.00;2.65;;;;;;;16.05;67.02;101717.78;4853094;28;119967;-76
2021/09/28 05:08:25;;;;;;;9.77;2.33;;;;;;;16.05;67.05;101715.00;4827914;28;120392;-76
2021/09/28 05:10:51;;;;;;;7.30;2.15;;;;;;;16.11;66.65;101726.25;4853251;28;119871;-76
2021/09/28 05:13:17;;;;;;;6.57;1.75;;;;;;;16.09;66.71;101720.38;4855163;28;119910;-76
2021/09/28 05:15:44;;;;;;;5.68;2.17;;;;;;;16.11;66.49;101729.78;4836455;28;119851;-76
2021/09/28 05:18:13;;;;;;;10.32;2.17;;;;;;;16.12;66.61;101733.31;4838974;28;119534;-76
2021/09/28 05:20:39;;;;;;;11.25;2.30;;;;;;;16.08;66.41;101727.94;4840041;28;119697;-77
2021/09/28 05:23:04;;;;;;;10.93;2.47;;;;;;;16.08;66.25;101735.47;4836174;28;119850;-75
2021/09/28 05:25:30;;;;;;;9.82;2.53;;;;;;;16.07;66.41;101740.22;4835429;28;119680;-76
2021/09/28 05:27:55;;;;;;;10.75;2.40;;;;;;;16.09;66.37;101737.00;4841536;28;121919;-76
2021/09/28 05:30:23;;;;;;;11.38;2.58;;;;;;;16.10;66.24;101733.03;4843479;28;119796;-76
2021/09/28 05:32:48;;;;;;;9.43;2.28;;;;;;;16.07;66.95;101736.69;4840635;28;120027;-76
2021/09/28 05:35:14;;;;;;;9.25;2.75;;;;;;;16.09;66.99;101743.31;4837403;28;120053;-77
2021/09/28 05:37:40;;;;;;;12.73;2.38;;;;;;;16.11;66.82;101740.88;4816011;28;119941;-77
2021/09/28 05:40:07;;;;;;;8.82;2.45;;;;;;;16.10;66.61;101750.41;4831494;28;121098;-76
2021/09/28 05:42:33;;;;;;;6.70;2.40;;;;;;;16.11;66.67;101754.69;4850863;28;119933;-76
2021/09/28 05:45:02;;;;;;;9.00;2.60;;;;;;;16.09;66.32;101748.06;4835536;28;119816;-76
2021/09/28 05:47:28;;;;;;;8.60;3.15;;;;;;;16.13;66.70;101752.25;4835865;28;120507;-76
2021/09/28 05:49:56;;;;;;;8.43;2.70;;;;;;;16.16;66.68;101756.06;4846428;28;119861;-75
2021/09/28 05:52:23;;;;;;;11.75;2.83;;;;;;;16.16;66.97;101753.31;4834152;28;120059;-76
2021/09/28 05:54:48;;;;;;;9.55;2.70;;;;;;;16.19;67.13;101752.38;4852280;28;122290;-76
2021/09/28 05:57:19;;;;;;;11.10;3.03;;;;;;;16.21;67.30;101758.22;4844315;28;119496;-76
2021/09/28 05:59:46;;;;;;;6.53;2.70;;;;;;;16.21;67.35;101764.53;4833138;28;122500;-75
2021/09/28 06:02:13;;;;;;;7.82;2.65;;;;;;;16.22;67.28;101759.75;4862555;28;119788;-76
2021/09/28 06:04:40;;;;;;;8.60;2.40;;;;;;;16.21;67.00;101766.53;4854238;28;119831;-76
2021/09/28 06:07:06;;;;;;;9.65;2.70;;;;;;;16.21;67.13;101763.75;4850937;28;119985;-76
2021/09/28 06:09:38;;;;;;;10.90;3.22;;;;;;;16.22;67.35;101766.06;4836133;28;120036;-76
2021/09/28 06:12:05;;;;;;;12.52;3.20;;;;;;;16.23;67.30;101772.38;4835369;28;119968;-76
2021/09/28 06:14:31;;;;;;;5.88;2.35;;;;;;;16.20;66.87;101762.22;4849087;28;120762;-75
2021/09/28 06:17:01;;;;;;;13.65;2.95;;;;;;;16.22;66.92;101770.81;4867071;28;119773;-75
2021/09/28 06:19:34;;;;;;;8.48;2.80;;;;;;;16.21;67.33;101767.28;4845513;28;122685;-75
2021/09/28 06:21:59;;;;;;;12.25;2.97;;;;;;;16.26;67.44;101777.75;4853988;28;119845;-75
2021/09/28 06:24:25;;;;;;;8.82;2.92;;;;;;;16.28;67.91;101771.72;4848482;28;119634;-75
2021/09/28 06:26:51;;;;;;;8.90;2.47;;;;;;;16.31;67.46;101776.34;4847526;28;120194;-75
2021/09/28 06:29:16;;;;;;;13.88;3.08;;;;;;;16.32;67.70;101777.88;4839905;28;119586;-75
2021/09/28 06:31:45;;;;;;;11.95;2.67;;;;;;;16.38;67.24;101778.81;4843092;28;119606;-75
2021/09/28 06:34:11;;;;;;;11.63;3.08;;;;;;;16.41;67.32;101783.41;4829877;28;122829;-74
2021/09/28 06:36:37;;;;;;;12.13;3.42;;;;;;;16.45;67.72;101780.47;4848918;28;119591;-74
2021/09/28 06:39:04;;;;;;;11.50;2.53;;;;;;;16.46;67.47;101777.25;4863644;28;120553;-75
2021/09/28 06:41:30;;;;;;;13.25;2.92;;;;;;;16.48;67.78;101779.56;4843868;28;120092;-75
2021/09/28 06:43:59;;;;;;;8.68;2.97;;;;;;;16.53;67.76;101781.69;4840504;28;120448;-75
2021/09/28 06:46:25;;;;;;;11.50;3.17;;;;;;;16.58;68.31;101801.25;4832371;28;120117;-75
2021/09/28 06:48:51;;;;;;;12.23;2.72;;;;;;;16.61;68.12;101798.78;4834738;28;120129;-75
2021/09/28 06:51:17;;;;;;;7.20;2.67;;;;;;;16.64;67.93;101801.38;4845563;28;119805;-75
2021/09/28 06:53:44;;;;;;;10.27;3.00;;;;;;;16.67;67.83;101805.25;4849899;28;120175;-75
2021/09/28 06:56:14;;;;;;;13.32;3.33;;;;;;;16.67;68.24;101794.94;4834184;28;119891;-75
2021/09/28 06:58:39;;;;;;;13.45;3.08;;;;;;;16.72;68.24;101802.59;4846511;28;121465;-75
2021/09/28 07:01:05;;;;;;;16.33;2.97;;;;;;;16.78;68.37;101805.50;4840826;28;120554;-75
2021/09/28 07:03:34;;;;;;;11.00;2.75;;;;;;;16.79;68.36;101804.28;4861702;28;120724;-75
2021/09/28 07:06:01;;;;;;;12.68;2.80;;;;;;;16.88;68.59;101815.34;4855699;28;122770;-75
2021/09/28 07:08:27;;;;;;;17.75;3.53;;;;;;;16.93;68.79;101817.47;4845053;28;119576;-75
2021/09/28 07:10:53;;;;;;;13.80;3.30;;;;;;;16.98;68.75;101816.84;4850963;28;119997;-76
2021/09/28 07:13:18;;;;;;;12.48;3.38;;;;;;;17.05;69.16;101821.31;4839373;28;119763;-75
2021/09/28 07:15:44;;;;;;;14.27;2.80;;;;;;;17.08;69.01;101818.38;4853997;28;120066;-75
2021/09/28 07:18:11;;;;;;;9.60;2.70;;;;;;;17.13;69.21;101823.25;4844920;28;119804;-74
2021/09/28 07:20:45;;;;;;;10.52;3.00;;;;;;;17.22;69.36;101825.22;4844278;28;121280;-74
2021/09/28 07:23:11;;;;;;;16.25;2.58;;;;;;;17.26;69.13;101830.59;4857057;28;123200;-74
2021/09/28 07:25:37;;;;;;;17.00;3.13;;;;;;;17.31;69.08;101832.75;4829076;28;120136;-75
2021/09/28 07:28:04;;;;;;;13.35;2.55;;;;;;;17.37;69.67;101828.84;4826587;28;120183;-75
2021/09/28 07:30:34;;;;;;;9.82;2.17;;;;;;;17.43;69.04;101840.84;4846095;28;120794;-74
2021/09/28 07:33:01;;;;;;;10.40;2.50;;;;;;;17.43;69.30;101834.53;4816708;28;123827;-75
2021/09/28 07:35:27;;;;;;;20.52;2.72;;;;;;;17.49;69.33;101838.19;4841155;28;120503;-75
2021/09/28 07:37:53;;;;;;;7.50;2.40;;;;;;;17.58;69.33;101845.72;4826669;28;120202;-75
2021/09/28 07:40:20;;;;;;;12.35;2.65;;;;;;;17.62;69.37;101841.50;4843780;28;122021;-75
2021/09/28 07:42:47;;;;;;;13.02;2.58;;;;;;;17.67;69.92;101849.22;4841802;28;119902;-75
2021/09/28 07:45:14;;;;;;;12.98;2.70;;;;;;;17.77;69.85;101850.72;4850642;28;121475;-75
2021/09/28 07:47:40;;;;;;;10.75;2.45;;;;;;;17.89;69.75;101848.94;4852801;28;120110;-75
2021/09/28 07:50:08;;;;;;;11.50;2.05;;;;;;;17.98;69.53;101842.53;4839447;28;120352;-75
2021/09/28 07:52:34;;;;;;;19.40;2.65;;;;;;;18.02;68.58;101840.38;4846328;28;120534;-75
2021/09/28 07:55:00;;;;;;;11.02;2.17;;;;;;;18.10;68.67;101849.88;4854662;28;120392;-75
2021/09/28 07:57:25;;;;;;;10.80;1.88;;;;;;;18.19;68.70;101849.78;4830299;28;121016;-75
2021/09/28 07:59:54;;;;;;;9.60;2.10;;;;;;;18.31;68.95;101856.34;4854643;28;120804;-75
2021/09/28 08:02:23;;;;;;;11.70;2.33;;;;;;;18.45;69.33;101854.81;4836202;28;120133;-75
2021/09/28 08:04:52;;;;;;;10.23;1.95;;;;;;;18.58;68.95;101852.53;4845693;28;120550;-74
2021/09/28 08:07:18;;;;;;;8.15;1.60;;;;;;;18.67;68.96;101844.13;4832630;28;120940;-74
2021/09/28 08:09:44;;;;;;;13.77;2.33;;;;;;;18.81;68.34;101854.50;4842728;28;120653;-74
2021/09/28 08:12:10;;;;;;;9.55;2.03;;;;;;;18.88;67.99;101859.66;4837188;28;120692;-75
2021/09/28 08:14:36;;;;;;;9.57;2.00;;;;;;;18.93;68.11;101859.00;4834703;28;120988;-75
2021/09/28 08:17:03;;;;;;;6.70;1.67;;;;;;;19.00;68.15;101850.28;4843493;28;120438;-75
2021/09/28 08:19:28;;;;;;;7.13;1.90;;;;;;;19.02;67.50;101853.34;4857998;28;121856;-75
2021/09/28 08:21:54;;;;;;;12.40;2.03;;;;;;;19.02;68.18;101850.56;4852579;28;121029;-75
2021/09/28 08:24:20;;;;;;;10.63;2.03;;;;;;;19.04;67.61;101849.31;4848113;28;123111;-75
2021/09/28 08:29:31;;;;;;;12.82;1.98;;;;;;;19.11;67.27;101844.09;4834508;28;121348;-75
2021/09/28 08:31:57;;;;;;;8.60;1.63;;;;;;;19.25;67.49;101859.25;4830189;28;121314;-75
2021/09/28 08:34:23;;;;;;;11.77;2.40;;;;;;;19.32;67.60;101864.41;4833889;28;120320;-75
2021/09/28 08:36:48;;;;;;;10.07;1.90;;;;;;;19.39;67.50;101868.78;4834242;28;121758;-75
2021/09/28 08:39:15;;;;;;;14.00;1.98;;;;;;;19.47;67.56;101873.50;4841635;28;120901;-75
2021/09/28 08:41:47;;;;;;;9.18;1.48;;;;;;;19.56;67.49;101870.63;4846945;28;120981;-75
2021/09/28 08:44:15;;;;;;;6.70;1.52;;;;;;;19.61;66.83;101869.16;4851894;28;121670;-74
2021/09/28 08:46:41;;;;;;;8.65;1.80;;;;;;;19.65;66.39;101868.97;4835020;28;121822;-75
2021/09/28 08:49:07;;;;;;;9.32;1.60;;;;;;;19.74;67.15;101872.38;4836172;28;122046;-75
2021/09/28 08:51:33;;;;;;;9.13;1.88;;;;;;;19.85;66.84;101874.53;4840623;28;120816;-75
2021/09/28 08:53:59;;;;;;;10.00;1.75;;;;;;;19.91;67.09;101867.81;4844274;28;121249;-75
2021/09/28 08:56:25;;;;;;;10.20;2.30;;;;;;;20.00;nan;101871.69;4842111;28;121723;-75
2021/09/28 08:58:57;;;;;;;10.35;1.95;;;;;;;20.05;66.48;101865.44;4831284;28;123973;-75
2021/09/28 09:01:23;;;;;;;6.53;1.77;;;;;;;20.09;65.87;101871.53;4832407;28;121811;-75
2021/09/28 09:03:49;;;;;;;11.93;2.00;;;;;;;20.10;65.33;101871.06;4833241;28;121860;-75
2021/09/28 09:06:18;;;;;;;15.20;1.95;;;;;;;20.14;65.80;101876.44;4811265;28;124064;-75
2021/09/28 09:08:48;;;;;;;9.27;1.55;;;;;;;20.18;66.11;101869.41;4846840;28;121925;-75
2021/09/28 09:11:16;;;;;;;7.28;1.92;;;;;;;20.21;65.86;101871.19;4860786;28;123354;-75
2021/09/28 09:13:49;;;;;;;6.72;1.90;;;;;;;20.23;64.84;101871.47;4855242;28;121708;-75
2021/09/28 09:16:16;;;;;;;8.43;1.60;;;;;;;20.24;65.70;101877.81;4843615;28;122510;-75
2021/09/28 09:18:44;;;;;;;7.85;1.80;;;;;;;20.26;65.23;101866.94;4831315;28;121740;-75
2021/09/28 09:21:11;;;;;;;9.40;1.98;;;;;;;20.31;65.49;101865.47;4830093;28;122378;-75
2021/09/28 09:23:38;;;;;;;6.75;1.63;;;;;;;20.32;65.40;101861.44;4839520;28;121437;-75
2021/09/28 09:26:10;;;;;;;6.90;1.80;;;;;;;20.38;65.64;101873.41;4811174;28;122695;-75
2021/09/28 09:28:39;;;;;;;10.93;1.98;;;;;;;20.41;65.63;101866.91;4842589;28;121771;-75
2021/09/28 09:31:15;;;;;;;6.03;1.98;;;;;;;20.45;65.90;101861.88;4842365;28;122187;-75
2021/09/28 09:33:43;;;;;;;7.78;1.80;;;;;;;20.46;65.25;101860.59;4839853;28;121658;-75
2021/09/28 09:36:10;;;;;;;9.27;1.60;;;;;;;20.50;65.37;101869.50;4837007;28;121435;-75
2021/09/28 09:38:56;;;;;;;8.43;1.70;;;;;;;20.51;65.55;101863.44;4817507;28;122136;-75
2021/09/28 09:41:29;;;;;;;10.32;1.88;;;;;;;20.53;65.21;101865.75;4833411;28;122171;-75
2021/09/28 09:44:06;;;;;;;4.53;1.67;;;;;;;20.56;65.06;101870.31;4829971;28;122892;-75
2021/09/28 09:46:46;;;;;;;7.45;1.60;;;;;;;20.56;65.01;101872.34;4828150;28;123603;-75
2021/09/28 09:49:24;;;;;;;16.70;2.13;;;;;;;20.57;64.86;101879.44;4845459;28;121760;-75
2021/09/28 09:51:55;;;;;;;7.88;1.52;;;;;;;20.58;65.21;101881.75;4843139;28;123227;-75
2021/09/28 09:54:37;;;;;;;9.20;1.80;;;;;;;20.63;64.84;101883.09;4841225;28;124314;-75
2021/09/28 09:57:05;;;;;;;8.10;1.77;;;;;;;20.66;64.50;101882.88;4805339;29;124365;-75
2021/09/28 09:59:34;;;;;;;8.88;1.90;;;;;;;20.72;64.62;101868.97;4830764;28;122174;-75
2021/09/28 10:02:03;;;;;;;8.05;2.03;;;;;;;20.79;65.27;101880.44;4830837;28;121833;-75
2021/09/28 10:04:29;;;;;;;6.75;1.90;;;;;;;20.84;64.51;101881.78;4836715;28;122289;-75
2021/09/28 10:06:56;;;;;;;6.20;1.60;;;;;;;20.86;63.28;101876.47;4832172;28;121565;-75
2021/09/28 10:09:38;;;;;;;7.40;1.65;;;;;;;20.88;63.11;101873.19;4834669;28;122671;-75
2021/09/28 10:12:06;;;;;;;9.30;1.45;;;;;;;20.90;63.19;101867.88;4842420;28;123829;-75
2021/09/28 10:14:41;;;;;;;5.88;1.73;;;;;;;20.93;63.08;101866.88;4843973;28;121983;-75
2021/09/28 10:17:31;;;;;;;7.28;1.83;;;;;;;20.94;62.46;101857.25;4834480;28;122610;-75
2021/09/28 10:20:00;;;;;;;7.55;1.55;;;;;;;20.98;62.95;101860.56;4845396;28;122362;-75
2021/09/28 10:23:11;;;;;;;5.53;1.65;;;;;;;21.03;62.90;101859.84;4846807;28;122344;-75
2021/09/28 10:25:36;;;;;;;7.15;1.90;;;;;;;20.99;62.94;101853.72;4836664;28;123754;-75
2021/09/28 10:28:04;;;;;;;5.70;1.73;;;;;;;21.01;63.34;101859.59;4813921;28;124840;-75
2021/09/28 10:30:33;;;;;;;4.65;1.50;;;;;;;21.02;63.44;101859.09;4840083;28;121938;-75
2021/09/28 10:33:03;;;;;;;7.38;2.08;;;;;;;21.01;61.16;101860.34;4834042;28;121745;-75
2021/09/28 10:35:30;;;;;;;12.80;1.63;;;;;;;21.01;61.75;101859.59;4833373;28;123617;-75
2021/09/28 10:37:56;;;;;;;5.72;1.70;;;;;;;21.07;61.87;101861.19;4836214;28;122414;-75
2021/09/28 10:40:21;;;;;;;5.78;1.70;;;;;;;21.10;62.33;101860.19;4839700;28;122966;-75
2021/09/28 10:43:00;;;;;;;7.20;1.60;;;;;;;21.10;61.96;101862.22;4812683;28;121651;-75
2021/09/28 10:45:29;;;;;;;6.85;1.80;;;;;;;21.08;61.89;101861.94;4841578;28;122235;-75
2021/09/28 10:47:58;;;;;;;6.05;1.60;;;;;;;21.07;63.18;101858.38;4828496;28;121783;-75
2021/09/28 10:50:43;;;;;;;6.28;1.45;;;;;;;21.14;63.41;101862.75;4841602;28;122090;-75
2021/09/28 10:53:28;;;;;;;6.35;1.50;;;;;;;21.19;61.86;101861.25;4835061;28;123763;-75
2021/09/28 10:56:00;;;;;;;10.90;2.10;;;;;;;21.24;60.72;101854.97;4835746;28;122310;-75
2021/09/28 10:58:27;;;;;;;10.63;1.40;;;;;;;21.29;60.58;101865.41;4847650;28;122814;-75
2021/09/28 11:00:55;;;;;;;7.95;1.27;;;;;;;21.28;59.74;101864.63;4845330;28;121952;-75
2021/09/28 11:03:43;;;;;;;5.65;1.33;;;;;;;21.24;58.84;101864.09;4834083;28;122439;-75
2021/09/28 11:06:10;;;;;;;5.32;1.42;;;;;;;21.18;60.19;101862.50;4845565;28;122069;-75
2021/09/28 11:08:36;;;;;;;4.72;1.52;;;;;;;21.13;60.57;101864.00;4833732;28;122180;-75
2021/09/28 11:11:05;;;;;;;3.33;1.20;;;;;;;21.12;61.14;101851.31;4829076;28;123023;-75
2021/09/28 11:13:39;;;;;;;7.53;1.30;;;;;;;21.13;61.47;101861.22;4829520;28;123367;-75
2021/09/28 11:16:11;;;;;;;6.78;1.40;;;;;;;21.08;61.17;101840.38;4829139;28;122641;-75
2021/09/28 11:18:53;;;;;;;6.85;1.40;;;;;;;21.10;60.81;101849.03;4831065;28;123060;-74